sensor_id;sensor_type;location;lat;lon;timestamp;temperature;humidity
16128;DHT22;8168;49.036;7.690;2023-07-08T00:01:08;18.10;99.90
16128;DHT22;8168;49.036;7.690;2023-07-08T00:03:39;18.10;99.90
16128;DHT22;8168;49.036;7.690;2023-07-08T00:06:30;18.00;99.90
16128;DHT22;8168;49.036;7.690;2023-07-08T00:09:00;18.00;99.90
16128;DHT22;8168;49.036;7.690;2023-07-08T00:11:31;17.90;99.90
16128;DHT22;8168;49.036;7.690;2023-07-08T00:14:02;17.90;99.90
16128;DHT22;8168;49.036;7.690;2023-07-08T00:16:32;17.90;99.90
16128;DHT22;8168;49.036;7.690;2023-07-08T00:19:08;17.90;99.90
16128;DHT22;8168;49.036;7.690;2023-07-08T00:21:41;17.90;99.90
16128;DHT22;8168;49.036;7.690;2023-07-08T00:24:12;17.80;99.90
16128;DHT22;8168;49.036;7.690;2023-07-08T00:26:43;17.80;99.90
16128;DHT22;8168;49.036;7.690;2023-07-08T00:29:15;17.80;99.90
16128;DHT22;8168;49.036;7.690;2023-07-08T00:31:46;17.80;99.90
16128;DHT22;8168;49.036;7.690;2023-07-08T00:34:17;17.70;99.90
16128;DHT22;8168;49.036;7.690;2023-07-08T00:36:47;17.70;99.90
16128;DHT22;8168;49.036;7.690;2023-07-08T00:39:18;17.60;99.90
16128;DHT22;8168;49.036;7.690;2023-07-08T00:41:49;17.60;99.90
16128;DHT22;8168;49.036;7.690;2023-07-08T00:44:20;17.60;99.90
16128;DHT22;8168;49.036;7.690;2023-07-08T00:47:04;17.60;99.90
16128;DHT22;8168;49.036;7.690;2023-07-08T00:49:49;17.50;99.90
16128;DHT22;8168;49.036;7.690;2023-07-08T00:52:27;17.50;99.90
16128;DHT22;8168;49.036;7.690;2023-07-08T00:55:00;17.50;99.90
16128;DHT22;8168;49.036;7.690;2023-07-08T00:57:35;17.50;99.90
16128;DHT22;8168;49.036;7.690;2023-07-08T01:00:14;17.50;99.90
16128;DHT22;8168;49.036;7.690;2023-07-08T01:02:49;17.40;99.90
16128;DHT22;8168;49.036;7.690;2023-07-08T01:05:24;17.30;99.90
16128;DHT22;8168;49.036;7.690;2023-07-08T01:07:58;17.30;99.90
16128;DHT22;8168;49.036;7.690;2023-07-08T01:10:36;17.20;99.90
16128;DHT22;8168;49.036;7.690;2023-07-08T01:13:08;17.20;99.90
16128;DHT22;8168;49.036;7.690;2023-07-08T01:15:42;17.20;99.90
16128;DHT22;8168;49.036;7.690;2023-07-08T01:18:16;17.10;99.90
16128;DHT22;8168;49.036;7.690;2023-07-08T01:20:47;17.10;99.90
16128;DHT22;8168;49.036;7.690;2023-07-08T01:23:18;17.10;99.90
16128;DHT22;8168;49.036;7.690;2023-07-08T01:25:49;17.10;99.90
16128;DHT22;8168;49.036;7.690;2023-07-08T01:28:19;17.00;99.90
16128;DHT22;8168;49.036;7.690;2023-07-08T01:30:50;17.00;99.90
16128;DHT22;8168;49.036;7.690;2023-07-08T01:33:21;17.00;99.90
16128;DHT22;8168;49.036;7.690;2023-07-08T01:35:52;16.90;99.90
16128;DHT22;8168;49.036;7.690;2023-07-08T01:38:25;16.90;99.90
16128;DHT22;8168;49.036;7.690;2023-07-08T01:40:57;16.80;99.90
16128;DHT22;8168;49.036;7.690;2023-07-08T01:43:28;16.80;99.90
16128;DHT22;8168;49.036;7.690;2023-07-08T01:46:00;16.80;99.90
16128;DHT22;8168;49.036;7.690;2023-07-08T01:48:35;16.80;99.90
16128;DHT22;8168;49.036;7.690;2023-07-08T01:51:07;16.70;99.90
16128;DHT22;8168;49.036;7.690;2023-07-08T01:53:40;16.70;99.90
16128;DHT22;8168;49.036;7.690;2023-07-08T01:56:12;16.70;99.90
16128;DHT22;8168;49.036;7.690;2023-07-08T01:58:43;16.70;99.90
16128;DHT22;8168;49.036;7.690;2023-07-08T02:01:14;16.60;99.90
16128;DHT22;8168;49.036;7.690;2023-07-08T02:03:44;16.60;99.90
16128;DHT22;8168;49.036;7.690;2023-07-08T02:06:17;16.60;99.90
16128;DHT22;8168;49.036;7.690;2023-07-08T02:08:47;16.50;99.90
16128;DHT22;8168;49.036;7.690;2023-07-08T02:11:18;16.50;99.90
16128;DHT22;8168;49.036;7.690;2023-07-08T02:13:49;16.40;99.90
16128;DHT22;8168;49.036;7.690;2023-07-08T02:16:19;16.40;99.90
16128;DHT22;8168;49.036;7.690;2023-07-08T02:18:50;16.40;99.90
16128;DHT22;8168;49.036;7.690;2023-07-08T02:21:23;16.40;99.90
16128;DHT22;8168;49.036;7.690;2023-07-08T02:23:54;16.40;99.90
16128;DHT22;8168;49.036;7.690;2023-07-08T02:26:25;16.30;99.90
16128;DHT22;8168;49.036;7.690;2023-07-08T02:28:56;16.30;99.90
16128;DHT22;8168;49.036;7.690;2023-07-08T02:31:27;16.30;99.90
16128;DHT22;8168;49.036;7.690;2023-07-08T02:33:58;16.30;99.90
16128;DHT22;8168;49.036;7.690;2023-07-08T02:36:29;16.20;99.90
16128;DHT22;8168;49.036;7.690;2023-07-08T02:39:00;16.20;99.90
16128;DHT22;8168;49.036;7.690;2023-07-08T02:41:30;16.20;99.90
16128;DHT22;8168;49.036;7.690;2023-07-08T02:44:01;16.10;99.90
16128;DHT22;8168;49.036;7.690;2023-07-08T02:46:31;16.10;99.90
16128;DHT22;8168;49.036;7.690;2023-07-08T02:49:02;16.10;99.90
16128;DHT22;8168;49.036;7.690;2023-07-08T02:51:33;16.00;99.90
16128;DHT22;8168;49.036;7.690;2023-07-08T02:54:04;16.00;99.90
16128;DHT22;8168;49.036;7.690;2023-07-08T02:56:34;16.00;99.90
16128;DHT22;8168;49.036;7.690;2023-07-08T02:59:05;15.90;99.90
16128;DHT22;8168;49.036;7.690;2023-07-08T03:01:36;15.90;99.90
16128;DHT22;8168;49.036;7.690;2023-07-08T03:04:12;15.90;99.90
16128;DHT22;8168;49.036;7.690;2023-07-08T03:06:45;15.90;99.90
16128;DHT22;8168;49.036;7.690;2023-07-08T03:09:16;15.90;99.90
16128;DHT22;8168;49.036;7.690;2023-07-08T03:11:47;15.90;99.90
16128;DHT22;8168;49.036;7.690;2023-07-08T03:14:18;15.90;99.90
16128;DHT22;8168;49.036;7.690;2023-07-08T03:16:49;15.90;99.90
16128;DHT22;8168;49.036;7.690;2023-07-08T03:19:19;15.90;99.90
16128;DHT22;8168;49.036;7.690;2023-07-08T03:21:50;15.80;99.90
16128;DHT22;8168;49.036;7.690;2023-07-08T03:24:21;15.80;99.90
16128;DHT22;8168;49.036;7.690;2023-07-08T03:26:51;15.80;99.90
16128;DHT22;8168;49.036;7.690;2023-07-08T03:29:24;15.90;99.90
16128;DHT22;8168;49.036;7.690;2023-07-08T03:31:55;15.80;99.90
16128;DHT22;8168;49.036;7.690;2023-07-08T03:34:25;15.80;99.90
16128;DHT22;8168;49.036;7.690;2023-07-08T03:36:56;15.80;99.90
16128;DHT22;8168;49.036;7.690;2023-07-08T03:39:27;15.80;99.90
16128;DHT22;8168;49.036;7.690;2023-07-08T03:41:58;15.80;99.90
16128;DHT22;8168;49.036;7.690;2023-07-08T03:44:28;15.70;99.90
16128;DHT22;8168;49.036;7.690;2023-07-08T03:46:59;15.70;99.90
16128;DHT22;8168;49.036;7.690;2023-07-08T03:49:29;15.60;99.90
16128;DHT22;8168;49.036;7.690;2023-07-08T03:52:00;15.60;99.90
16128;DHT22;8168;49.036;7.690;2023-07-08T03:54:31;15.50;99.90
16128;DHT22;8168;49.036;7.690;2023-07-08T03:57:01;15.50;99.90
16128;DHT22;8168;49.036;7.690;2023-07-08T03:59:32;15.50;99.90
16128;DHT22;8168;49.036;7.690;2023-07-08T04:02:03;15.50;99.90
16128;DHT22;8168;49.036;7.690;2023-07-08T04:04:34;15.50;99.90
16128;DHT22;8168;49.036;7.690;2023-07-08T04:07:06;15.50;99.90
16128;DHT22;8168;49.036;7.690;2023-07-08T04:09:36;15.60;99.90
16128;DHT22;8168;49.036;7.690;2023-07-08T04:12:08;15.60;99.90
16128;DHT22;8168;49.036;7.690;2023-07-08T04:14:39;15.60;99.90
16128;DHT22;8168;49.036;7.690;2023-07-08T04:17:13;15.60;99.90
16128;DHT22;8168;49.036;7.690;2023-07-08T04:19:44;15.60;99.90
16128;DHT22;8168;49.036;7.690;2023-07-08T04:22:15;15.60;99.90
16128;DHT22;8168;49.036;7.690;2023-07-08T04:24:45;15.60;99.90
16128;DHT22;8168;49.036;7.690;2023-07-08T04:27:17;15.60;99.90
16128;DHT22;8168;49.036;7.690;2023-07-08T04:29:48;15.50;99.90
16128;DHT22;8168;49.036;7.690;2023-07-08T04:32:18;15.50;99.90
16128;DHT22;8168;49.036;7.690;2023-07-08T04:34:49;15.40;99.90
16128;DHT22;8168;49.036;7.690;2023-07-08T04:37:20;15.40;99.90
16128;DHT22;8168;49.036;7.690;2023-07-08T04:39:50;15.40;99.90
16128;DHT22;8168;49.036;7.690;2023-07-08T04:42:21;15.30;99.90
16128;DHT22;8168;49.036;7.690;2023-07-08T04:44:51;15.30;99.90
16128;DHT22;8168;49.036;7.690;2023-07-08T04:47:23;15.30;99.90
16128;DHT22;8168;49.036;7.690;2023-07-08T04:49:54;15.30;99.90
16128;DHT22;8168;49.036;7.690;2023-07-08T04:52:24;15.20;99.90
16128;DHT22;8168;49.036;7.690;2023-07-08T04:54:55;15.10;99.90
16128;DHT22;8168;49.036;7.690;2023-07-08T04:57:25;15.10;99.90
16128;DHT22;8168;49.036;7.690;2023-07-08T04:59:56;15.00;99.90
16128;DHT22;8168;49.036;7.690;2023-07-08T05:02:27;15.00;99.90
16128;DHT22;8168;49.036;7.690;2023-07-08T05:04:57;15.00;99.90
16128;DHT22;8168;49.036;7.690;2023-07-08T05:07:28;15.00;99.90
16128;DHT22;8168;49.036;7.690;2023-07-08T05:09:58;15.00;99.90
16128;DHT22;8168;49.036;7.690;2023-07-08T05:12:29;15.00;99.90
16128;DHT22;8168;49.036;7.690;2023-07-08T05:15:00;14.90;99.90
16128;DHT22;8168;49.036;7.690;2023-07-08T05:17:30;14.80;99.90
16128;DHT22;8168;49.036;7.690;2023-07-08T05:20:01;14.90;99.90
16128;DHT22;8168;49.036;7.690;2023-07-08T05:22:31;15.00;99.90
16128;DHT22;8168;49.036;7.690;2023-07-08T05:25:02;15.20;99.90
16128;DHT22;8168;49.036;7.690;2023-07-08T05:27:33;15.50;99.90
16128;DHT22;8168;49.036;7.690;2023-07-08T05:30:06;15.90;99.90
16128;DHT22;8168;49.036;7.690;2023-07-08T05:32:36;16.40;99.90
16128;DHT22;8168;49.036;7.690;2023-07-08T05:35:07;16.80;99.90
16128;DHT22;8168;49.036;7.690;2023-07-08T05:37:38;17.40;99.90
16128;DHT22;8168;49.036;7.690;2023-07-08T05:40:10;17.70;99.90
16128;DHT22;8168;49.036;7.690;2023-07-08T05:42:41;18.10;99.90
16128;DHT22;8168;49.036;7.690;2023-07-08T05:45:11;18.60;99.90
16128;DHT22;8168;49.036;7.690;2023-07-08T05:47:42;19.00;99.90
16128;DHT22;8168;49.036;7.690;2023-07-08T05:50:13;19.40;99.90
16128;DHT22;8168;49.036;7.690;2023-07-08T05:52:43;19.60;99.90
16128;DHT22;8168;49.036;7.690;2023-07-08T05:55:14;19.80;99.90
16128;DHT22;8168;49.036;7.690;2023-07-08T05:57:45;20.00;99.90
16128;DHT22;8168;49.036;7.690;2023-07-08T06:00:15;20.10;99.90
16128;DHT22;8168;49.036;7.690;2023-07-08T06:02:46;20.30;99.90
16128;DHT22;8168;49.036;7.690;2023-07-08T06:05:16;20.50;99.90
16128;DHT22;8168;49.036;7.690;2023-07-08T06:07:47;20.70;99.90
16128;DHT22;8168;49.036;7.690;2023-07-08T06:10:18;20.80;99.90
16128;DHT22;8168;49.036;7.690;2023-07-08T06:12:48;21.00;99.90
16128;DHT22;8168;49.036;7.690;2023-07-08T06:15:19;21.10;99.90
16128;DHT22;8168;49.036;7.690;2023-07-08T06:17:49;21.20;99.90
16128;DHT22;8168;49.036;7.690;2023-07-08T06:20:20;21.40;99.90
16128;DHT22;8168;49.036;7.690;2023-07-08T06:22:50;21.50;99.90
16128;DHT22;8168;49.036;7.690;2023-07-08T06:25:21;21.70;99.90
16128;DHT22;8168;49.036;7.690;2023-07-08T06:27:52;21.80;99.90
16128;DHT22;8168;49.036;7.690;2023-07-08T06:30:22;21.90;99.90
16128;DHT22;8168;49.036;7.690;2023-07-08T06:32:53;21.90;99.90
16128;DHT22;8168;49.036;7.690;2023-07-08T06:35:24;22.00;99.90
16128;DHT22;8168;49.036;7.690;2023-07-08T06:37:54;22.10;99.90
16128;DHT22;8168;49.036;7.690;2023-07-08T06:40:25;22.00;99.90
16128;DHT22;8168;49.036;7.690;2023-07-08T06:42:55;22.10;99.90
16128;DHT22;8168;49.036;7.690;2023-07-08T06:45:26;22.10;99.90
16128;DHT22;8168;49.036;7.690;2023-07-08T06:47:57;22.10;99.90
16128;DHT22;8168;49.036;7.690;2023-07-08T06:50:27;22.10;99.90
16128;DHT22;8168;49.036;7.690;2023-07-08T06:52:58;22.00;99.90
16128;DHT22;8168;49.036;7.690;2023-07-08T06:55:28;22.10;99.90
16128;DHT22;8168;49.036;7.690;2023-07-08T06:58:00;22.20;99.90
16128;DHT22;8168;49.036;7.690;2023-07-08T07:00:31;22.20;99.90
16128;DHT22;8168;49.036;7.690;2023-07-08T07:03:01;22.30;99.90
16128;DHT22;8168;49.036;7.690;2023-07-08T07:05:32;19.70;99.90
16128;DHT22;8168;49.036;7.690;2023-07-08T07:08:03;22.30;99.90
16128;DHT22;8168;49.036;7.690;2023-07-08T07:10:34;22.40;99.90
16128;DHT22;8168;49.036;7.690;2023-07-08T07:13:08;22.50;99.90
16128;DHT22;8168;49.036;7.690;2023-07-08T07:15:38;22.60;99.90
16128;DHT22;8168;49.036;7.690;2023-07-08T07:18:09;22.80;99.90
16128;DHT22;8168;49.036;7.690;2023-07-08T07:20:50;22.90;99.90
16128;DHT22;8168;49.036;7.690;2023-07-08T07:23:21;23.00;99.90
16128;DHT22;8168;49.036;7.690;2023-07-08T07:25:52;23.10;99.90
16128;DHT22;8168;49.036;7.690;2023-07-08T07:28:22;23.20;99.90
16128;DHT22;8168;49.036;7.690;2023-07-08T07:30:57;23.20;99.90
16128;DHT22;8168;49.036;7.690;2023-07-08T07:33:29;23.20;99.90
16128;DHT22;8168;49.036;7.690;2023-07-08T07:36:00;23.40;99.90
16128;DHT22;8168;49.036;7.690;2023-07-08T07:38:33;23.40;99.90
16128;DHT22;8168;49.036;7.690;2023-07-08T07:41:03;23.60;99.90
16128;DHT22;8168;49.036;7.690;2023-07-08T07:43:36;23.70;99.90
16128;DHT22;8168;49.036;7.690;2023-07-08T07:46:07;23.70;99.90
16128;DHT22;8168;49.036;7.690;2023-07-08T07:48:38;23.80;99.90
16128;DHT22;8168;49.036;7.690;2023-07-08T07:51:09;23.80;99.90
16128;DHT22;8168;49.036;7.690;2023-07-08T07:53:41;23.90;99.90
16128;DHT22;8168;49.036;7.690;2023-07-08T07:56:12;24.00;99.90
16128;DHT22;8168;49.036;7.690;2023-07-08T07:58:42;24.00;99.90
16128;DHT22;8168;49.036;7.690;2023-07-08T08:01:13;24.10;99.90
16128;DHT22;8168;49.036;7.690;2023-07-08T08:03:44;24.20;99.90
16128;DHT22;8168;49.036;7.690;2023-07-08T08:06:14;24.30;99.90
16128;DHT22;8168;49.036;7.690;2023-07-08T08:08:48;24.40;99.90
16128;DHT22;8168;49.036;7.690;2023-07-08T08:11:19;24.40;99.90
16128;DHT22;8168;49.036;7.690;2023-07-08T08:13:50;24.50;99.90
16128;DHT22;8168;49.036;7.690;2023-07-08T08:16:21;24.60;99.90
16128;DHT22;8168;49.036;7.690;2023-07-08T08:18:52;24.70;99.90
16128;DHT22;8168;49.036;7.690;2023-07-08T08:21:23;24.80;99.90
16128;DHT22;8168;49.036;7.690;2023-07-08T08:23:53;24.80;99.90
16128;DHT22;8168;49.036;7.690;2023-07-08T08:26:24;25.00;99.90
16128;DHT22;8168;49.036;7.690;2023-07-08T08:28:55;25.00;99.90
16128;DHT22;8168;49.036;7.690;2023-07-08T08:31:26;25.20;99.90
16128;DHT22;8168;49.036;7.690;2023-07-08T08:33:57;25.30;99.90
16128;DHT22;8168;49.036;7.690;2023-07-08T08:36:28;25.40;99.90
16128;DHT22;8168;49.036;7.690;2023-07-08T08:38:58;25.40;99.90
16128;DHT22;8168;49.036;7.690;2023-07-08T08:41:34;25.50;99.90
16128;DHT22;8168;49.036;7.690;2023-07-08T08:44:05;25.60;99.60
16128;DHT22;8168;49.036;7.690;2023-07-08T08:52:47;25.80;99.50
16128;DHT22;8168;49.036;7.690;2023-07-08T08:55:17;26.00;99.50
16128;DHT22;8168;49.036;7.690;2023-07-08T08:58:57;26.00;99.70
16128;DHT22;8168;49.036;7.690;2023-07-08T09:01:01;26.10;99.90
16128;DHT22;8168;49.036;7.690;2023-07-08T09:06:16;26.30;99.50
16128;DHT22;8168;49.036;7.690;2023-07-08T09:08:50;26.30;98.90
16128;DHT22;8168;49.036;7.690;2023-07-08T09:11:57;26.50;98.90
16128;DHT22;8168;49.036;7.690;2023-07-08T09:14:33;26.60;98.10
16128;DHT22;8168;49.036;7.690;2023-07-08T09:22:46;26.70;97.30
16128;DHT22;8168;49.036;7.690;2023-07-08T09:27:58;26.80;96.20
16128;DHT22;8168;49.036;7.690;2023-07-08T09:30:29;26.80;96.10
16128;DHT22;8168;49.036;7.690;2023-07-08T09:33:04;26.90;96.00
16128;DHT22;8168;49.036;7.690;2023-07-08T09:35:41;27.00;95.80
16128;DHT22;8168;49.036;7.690;2023-07-08T09:38:22;27.00;95.20
16128;DHT22;8168;49.036;7.690;2023-07-08T09:40:53;27.10;94.90
16128;DHT22;8168;49.036;7.690;2023-07-08T09:43:37;27.00;94.50
16128;DHT22;8168;49.036;7.690;2023-07-08T09:46:12;27.10;95.00
16128;DHT22;8168;49.036;7.690;2023-07-08T09:48:43;27.20;94.40
16128;DHT22;8168;49.036;7.690;2023-07-08T09:51:15;27.20;94.00
16128;DHT22;8168;49.036;7.690;2023-07-08T09:53:46;27.30;93.80
16128;DHT22;8168;49.036;7.690;2023-07-08T09:56:17;27.40;94.20
16128;DHT22;8168;49.036;7.690;2023-07-08T09:58:48;27.40;94.00
16128;DHT22;8168;49.036;7.690;2023-07-08T10:01:25;27.60;93.70
16128;DHT22;8168;49.036;7.690;2023-07-08T10:04:00;27.60;93.00
16128;DHT22;8168;49.036;7.690;2023-07-08T10:06:33;27.70;92.60
16128;DHT22;8168;49.036;7.690;2023-07-08T10:09:18;27.80;92.70
16128;DHT22;8168;49.036;7.690;2023-07-08T10:12:00;27.80;92.10
16128;DHT22;8168;49.036;7.690;2023-07-08T10:14:39;28.00;91.60
16128;DHT22;8168;49.036;7.690;2023-07-08T10:17:15;28.00;91.80
16128;DHT22;8168;49.036;7.690;2023-07-08T10:19:47;28.10;91.30
16128;DHT22;8168;49.036;7.690;2023-07-08T10:22:29;28.20;90.90
16128;DHT22;8168;49.036;7.690;2023-07-08T10:25:25;28.40;91.20
16128;DHT22;8168;49.036;7.690;2023-07-08T10:36:43;28.70;89.50
16128;DHT22;8168;49.036;7.690;2023-07-08T10:42:26;29.10;90.60
16128;DHT22;8168;49.036;7.690;2023-07-08T10:45:13;29.30;90.10
16128;DHT22;8168;49.036;7.690;2023-07-08T10:51:10;29.50;87.90
16128;DHT22;8168;49.036;7.690;2023-07-08T10:56:37;29.70;84.20
16128;DHT22;8168;49.036;7.690;2023-07-08T10:59:19;29.70;88.10
16128;DHT22;8168;49.036;7.690;2023-07-08T11:07:34;30.00;82.60
16128;DHT22;8168;49.036;7.690;2023-07-08T11:10:13;30.10;82.60
16128;DHT22;8168;49.036;7.690;2023-07-08T11:12:47;30.10;82.10
16128;DHT22;8168;49.036;7.690;2023-07-08T11:15:22;30.20;79.60
16128;DHT22;8168;49.036;7.690;2023-07-08T11:20:36;30.20;79.00
16128;DHT22;8168;49.036;7.690;2023-07-08T11:23:39;30.20;80.10
16128;DHT22;8168;49.036;7.690;2023-07-08T11:26:30;30.40;80.60
16128;DHT22;8168;49.036;7.690;2023-07-08T11:29:04;30.50;78.70
16128;DHT22;8168;49.036;7.690;2023-07-08T11:31:39;30.50;79.80
16128;DHT22;8168;49.036;7.690;2023-07-08T11:34:11;30.60;79.70
16128;DHT22;8168;49.036;7.690;2023-07-08T11:36:43;30.50;78.50
16128;DHT22;8168;49.036;7.690;2023-07-08T11:39:43;30.60;78.60
16128;DHT22;8168;49.036;7.690;2023-07-08T11:45:37;30.50;79.30
16128;DHT22;8168;49.036;7.690;2023-07-08T11:48:30;30.60;79.10
16128;DHT22;8168;49.036;7.690;2023-07-08T11:51:04;30.70;79.20
16128;DHT22;8168;49.036;7.690;2023-07-08T11:53:38;30.80;80.20
16128;DHT22;8168;49.036;7.690;2023-07-08T12:01:40;30.90;76.00
16128;DHT22;8168;49.036;7.690;2023-07-08T12:04:26;30.90;76.40
16128;DHT22;8168;49.036;7.690;2023-07-08T12:07:17;31.00;75.60
16128;DHT22;8168;49.036;7.690;2023-07-08T12:10:45;31.00;75.40
16128;DHT22;8168;49.036;7.690;2023-07-08T12:12:56;31.20;75.60
16128;DHT22;8168;49.036;7.690;2023-07-08T12:15:32;31.30;75.00
16128;DHT22;8168;49.036;7.690;2023-07-08T12:20:40;31.40;75.30
16128;DHT22;8168;49.036;7.690;2023-07-08T12:23:18;31.40;71.50
16128;DHT22;8168;49.036;7.690;2023-07-08T12:25:50;31.40;71.90
16128;DHT22;8168;49.036;7.690;2023-07-08T12:28:22;31.40;70.70
16128;DHT22;8168;49.036;7.690;2023-07-08T12:30:53;31.50;72.90
16128;DHT22;8168;49.036;7.690;2023-07-08T12:33:29;31.60;75.30
16128;DHT22;8168;49.036;7.690;2023-07-08T12:36:02;31.80;78.90
16128;DHT22;8168;49.036;7.690;2023-07-08T12:38:37;31.90;75.40
16128;DHT22;8168;49.036;7.690;2023-07-08T12:41:15;31.90;72.80
16128;DHT22;8168;49.036;7.690;2023-07-08T12:43:46;31.80;72.40
16128;DHT22;8168;49.036;7.690;2023-07-08T12:46:20;31.80;72.20
16128;DHT22;8168;49.036;7.690;2023-07-08T12:48:52;31.60;71.10
16128;DHT22;8168;49.036;7.690;2023-07-08T12:51:27;31.60;72.00
16128;DHT22;8168;49.036;7.690;2023-07-08T12:53:57;31.70;72.80
16128;DHT22;8168;49.036;7.690;2023-07-08T12:56:28;31.80;73.60
16128;DHT22;8168;49.036;7.690;2023-07-08T12:58:59;31.80;70.90
16128;DHT22;8168;49.036;7.690;2023-07-08T13:01:32;31.90;72.10
16128;DHT22;8168;49.036;7.690;2023-07-08T13:04:10;31.90;69.80
16128;DHT22;8168;49.036;7.690;2023-07-08T13:06:43;32.00;68.40
16128;DHT22;8168;49.036;7.690;2023-07-08T13:09:31;32.00;70.50
16128;DHT22;8168;49.036;7.690;2023-07-08T13:12:12;32.10;70.50
16128;DHT22;8168;49.036;7.690;2023-07-08T13:14:44;32.20;70.70
16128;DHT22;8168;49.036;7.690;2023-07-08T13:17:16;32.30;67.30
16128;DHT22;8168;49.036;7.690;2023-07-08T13:19:47;32.20;67.80
16128;DHT22;8168;49.036;7.690;2023-07-08T13:22:20;32.00;69.00
16128;DHT22;8168;49.036;7.690;2023-07-08T13:25:00;32.00;69.40
16128;DHT22;8168;49.036;7.690;2023-07-08T13:27:30;32.10;70.00
16128;DHT22;8168;49.036;7.690;2023-07-08T13:30:17;32.10;68.80
16128;DHT22;8168;49.036;7.690;2023-07-08T13:32:56;32.20;66.60
16128;DHT22;8168;49.036;7.690;2023-07-08T13:35:36;32.10;67.00
16128;DHT22;8168;49.036;7.690;2023-07-08T13:38:17;31.90;67.80
16128;DHT22;8168;49.036;7.690;2023-07-08T13:40:56;31.70;67.90
16128;DHT22;8168;49.036;7.690;2023-07-08T13:43:35;31.40;67.20
16128;DHT22;8168;49.036;7.690;2023-07-08T13:46:29;31.20;68.90
16128;DHT22;8168;49.036;7.690;2023-07-08T13:49:24;31.20;69.50
16128;DHT22;8168;49.036;7.690;2023-07-08T13:57:27;30.90;68.60
16128;DHT22;8168;49.036;7.690;2023-07-08T13:59:58;30.90;69.30
16128;DHT22;8168;49.036;7.690;2023-07-08T14:02:30;31.10;68.80
16128;DHT22;8168;49.036;7.690;2023-07-08T14:05:02;31.30;68.30
16128;DHT22;8168;49.036;7.690;2023-07-08T14:07:34;31.40;67.80
16128;DHT22;8168;49.036;7.690;2023-07-08T14:10:11;31.60;69.40
16128;DHT22;8168;49.036;7.690;2023-07-08T14:12:41;31.70;69.40
16128;DHT22;8168;49.036;7.690;2023-07-08T14:15:12;31.90;68.20
16128;DHT22;8168;49.036;7.690;2023-07-08T14:17:43;31.90;65.90
16128;DHT22;8168;49.036;7.690;2023-07-08T14:20:16;31.90;66.10
16128;DHT22;8168;49.036;7.690;2023-07-08T14:22:47;31.90;66.20
16128;DHT22;8168;49.036;7.690;2023-07-08T14:25:18;32.10;66.80
16128;DHT22;8168;49.036;7.690;2023-07-08T14:27:51;32.10;66.30
16128;DHT22;8168;49.036;7.690;2023-07-08T14:30:21;32.10;65.60
16128;DHT22;8168;49.036;7.690;2023-07-08T14:32:52;32.10;65.20
16128;DHT22;8168;49.036;7.690;2023-07-08T14:35:24;31.90;66.20
16128;DHT22;8168;49.036;7.690;2023-07-08T14:37:55;31.80;66.40
16128;DHT22;8168;49.036;7.690;2023-07-08T14:40:35;31.50;64.80
16128;DHT22;8168;49.036;7.690;2023-07-08T14:43:20;31.30;65.00
16128;DHT22;8168;49.036;7.690;2023-07-08T14:45:57;31.10;65.10
16128;DHT22;8168;49.036;7.690;2023-07-08T14:48:30;31.00;65.90
16128;DHT22;8168;49.036;7.690;2023-07-08T14:51:01;31.00;67.10
16128;DHT22;8168;49.036;7.690;2023-07-08T14:53:32;31.10;67.50
16128;DHT22;8168;49.036;7.690;2023-07-08T14:56:12;31.30;66.80
16128;DHT22;8168;49.036;7.690;2023-07-08T14:58:45;31.50;66.80
16128;DHT22;8168;49.036;7.690;2023-07-08T15:01:19;31.70;65.60
16128;DHT22;8168;49.036;7.690;2023-07-08T15:03:50;31.70;64.40
16128;DHT22;8168;49.036;7.690;2023-07-08T15:06:21;31.70;64.50
16128;DHT22;8168;49.036;7.690;2023-07-08T15:08:52;31.70;65.40
16128;DHT22;8168;49.036;7.690;2023-07-08T15:11:24;31.70;65.40
16128;DHT22;8168;49.036;7.690;2023-07-08T15:13:56;31.50;65.50
16128;DHT22;8168;49.036;7.690;2023-07-08T15:16:27;31.40;64.30
16128;DHT22;8168;49.036;7.690;2023-07-08T15:18:58;31.40;64.20
16128;DHT22;8168;49.036;7.690;2023-07-08T15:21:29;31.20;68.30
16128;DHT22;8168;49.036;7.690;2023-07-08T15:23:59;31.30;67.30
16128;DHT22;8168;49.036;7.690;2023-07-08T15:26:30;31.40;66.40
16128;DHT22;8168;49.036;7.690;2023-07-08T15:29:01;31.50;65.80
16128;DHT22;8168;49.036;7.690;2023-07-08T15:31:33;30.70;66.00
16128;DHT22;8168;49.036;7.690;2023-07-08T15:34:14;31.70;65.30
16128;DHT22;8168;49.036;7.690;2023-07-08T15:36:45;31.70;66.00
16128;DHT22;8168;49.036;7.690;2023-07-08T15:39:16;31.80;65.10
16128;DHT22;8168;49.036;7.690;2023-07-08T15:41:47;31.90;65.30
16128;DHT22;8168;49.036;7.690;2023-07-08T15:44:17;31.80;65.70
16128;DHT22;8168;49.036;7.690;2023-07-08T15:46:51;31.70;65.30
16128;DHT22;8168;49.036;7.690;2023-07-08T15:49:23;32.90;65.70
16128;DHT22;8168;49.036;7.690;2023-07-08T15:51:54;31.80;65.50
16128;DHT22;8168;49.036;7.690;2023-07-08T15:54:25;31.80;64.50
16128;DHT22;8168;49.036;7.690;2023-07-08T15:56:55;31.90;64.70
16128;DHT22;8168;49.036;7.690;2023-07-08T15:59:28;31.80;66.50
16128;DHT22;8168;49.036;7.690;2023-07-08T16:02:04;31.80;65.90
16128;DHT22;8168;49.036;7.690;2023-07-08T16:04:42;31.70;64.70
16128;DHT22;8168;49.036;7.690;2023-07-08T16:07:13;31.80;63.80
16128;DHT22;8168;49.036;7.690;2023-07-08T16:09:43;31.70;63.40
16128;DHT22;8168;49.036;7.690;2023-07-08T16:12:18;31.70;63.80
16128;DHT22;8168;49.036;7.690;2023-07-08T16:14:50;31.70;64.90
16128;DHT22;8168;49.036;7.690;2023-07-08T16:17:21;31.60;63.10
16128;DHT22;8168;49.036;7.690;2023-07-08T16:19:52;31.40;63.50
16128;DHT22;8168;49.036;7.690;2023-07-08T16:22:22;31.10;62.90
16128;DHT22;8168;49.036;7.690;2023-07-08T16:24:53;31.10;62.90
16128;DHT22;8168;49.036;7.690;2023-07-08T16:27:23;31.10;63.30
16128;DHT22;8168;49.036;7.690;2023-07-08T16:29:54;31.00;64.10
16128;DHT22;8168;49.036;7.690;2023-07-08T16:32:25;31.00;63.70
16128;DHT22;8168;49.036;7.690;2023-07-08T16:34:55;30.90;63.80
16128;DHT22;8168;49.036;7.690;2023-07-08T16:37:26;31.00;66.00
16128;DHT22;8168;49.036;7.690;2023-07-08T16:39:57;31.00;66.30
16128;DHT22;8168;49.036;7.690;2023-07-08T16:42:28;31.10;65.40
16128;DHT22;8168;49.036;7.690;2023-07-08T16:44:58;31.10;64.20
16128;DHT22;8168;49.036;7.690;2023-07-08T16:47:29;31.10;65.10
16128;DHT22;8168;49.036;7.690;2023-07-08T16:50:00;31.10;64.90
16128;DHT22;8168;49.036;7.690;2023-07-08T16:52:31;31.10;65.40
16128;DHT22;8168;49.036;7.690;2023-07-08T16:55:08;31.10;65.80
16128;DHT22;8168;49.036;7.690;2023-07-08T16:57:40;31.20;66.20
16128;DHT22;8168;49.036;7.690;2023-07-08T17:00:17;31.20;64.80
16128;DHT22;8168;49.036;7.690;2023-07-08T17:02:49;31.20;64.80
16128;DHT22;8168;49.036;7.690;2023-07-08T17:05:27;31.20;65.30
16128;DHT22;8168;49.036;7.690;2023-07-08T17:07:58;31.20;66.00
16128;DHT22;8168;49.036;7.690;2023-07-08T17:10:29;31.10;64.60
16128;DHT22;8168;49.036;7.690;2023-07-08T17:13:00;31.00;65.30
16128;DHT22;8168;49.036;7.690;2023-07-08T17:15:31;31.00;65.20
16128;DHT22;8168;49.036;7.690;2023-07-08T17:18:03;31.00;65.40
16128;DHT22;8168;49.036;7.690;2023-07-08T17:20:36;31.00;65.50
16128;DHT22;8168;49.036;7.690;2023-07-08T17:23:14;31.00;65.50